CheckWX is a tool to help pilots better visualize weather data.  It is not intended as a substitute for an official pre-flight weather briefing.

21:05:19 UTC

EDXW METAR
Westerland Sylt Airport
Westerland, Germany
Current

7 hours ago

EDXW 231420Z 18009KT CAVOK 06/01 Q1039
Observed
Feb-23 @ 14:20 UTC
Wind
  • 180° at 9 KTS
Visibility
10,000+ meters
Flight Rules
VFR
Cloud Levels
  • Clear skies
Temperature
C / 43°F
Dewpoint
C / 34°F
Humidity
71%
Altimeter
30.68" Hg
Pressure
1038.91 hPa
Previous

7 hours ago

EDXW 231350Z 18010KT CAVOK 06/02 Q1039
Observed
Feb-23 @ 13:50 UTC
Wind
  • 180° at 10 KTS
Visibility
10,000+ meters
Flight Rules
VFR
Cloud Levels
  • Clear skies
Temperature
C / 43°F
Dewpoint
C / 36°F
Humidity
76%
Altimeter
30.68" Hg
Pressure
1038.91 hPa
Previous

8 hours ago

EDXW 231320Z 18011KT CAVOK 06/02 Q1040
Observed
Feb-23 @ 13:20 UTC
Wind
  • 180° at 11 KTS
Visibility
10,000+ meters
Flight Rules
VFR
Cloud Levels
  • Clear skies
Temperature
C / 43°F
Dewpoint
C / 36°F
Humidity
76%
Altimeter
30.71" Hg
Pressure
1039.91 hPa